Time;durP1;ratioP1;P1;durP2;ratioP2;P2;SDS_P1;SDS_P2;PMS_P1;PMS_P2;Temp;Humidity;BMP_temperature;BMP_pressure;BME280_temperature;BME280_humidity;BME280_pressure;Samples;Min_cycle;Max_cycle;Signal;HPM_P1;HPM_P2
2023/01/25 00:00:50;;;;;;;87.25;43.92;;;;;;;-3.72;100.00;102636.88;6277870;22;20004;-95
2023/01/25 00:03:19;;;;;;;117.07;48.03;;;;;;;-3.51;100.00;102662.91;6278225;22;19999;-96
2023/01/25 00:05:46;;;;;;;127.57;48.97;;;;;;;-3.57;100.00;102645.00;6293701;22;20014;-95
2023/01/25 00:08:15;;;;;;;125.13;48.25;;;;;;;-3.47;100.00;102647.03;6277297;22;20008;-96
2023/01/25 00:10:41;;;;;;;124.80;50.28;;;;;;;-3.40;100.00;102638.03;6278260;22;20007;-95
2023/01/25 00:13:07;;;;;;;118.53;45.75;;;;;;;-3.31;100.00;102627.41;6276622;22;20058;-96
2023/01/25 00:15:32;;;;;;;116.43;49.90;;;;;;;-3.17;100.00;102637.97;6277384;22;20031;-95
2023/01/25 00:17:58;;;;;;;119.38;47.53;;;;;;;-3.10;100.00;102637.38;6277532;22;20010;-96
2023/01/25 00:20:24;;;;;;;119.03;50.47;;;;;;;-3.10;100.00;102638.22;6276963;22;20074;-95
2023/01/25 00:22:50;;;;;;;156.50;54.45;;;;;;;-2.99;100.00;102651.25;6277213;22;20011;-95
2023/01/25 00:25:16;;;;;;;142.95;50.33;;;;;;;-3.11;100.00;102634.00;6276432;22;20030;-94
2023/01/25 00:27:41;;;;;;;151.80;53.83;;;;;;;-3.08;100.00;102641.66;6277298;22;20090;-96
2023/01/25 00:30:08;;;;;;;134.85;50.92;;;;;;;-2.94;100.00;102636.25;6277150;22;20011;-95
2023/01/25 00:32:46;;;;;;;156.27;51.03;;;;;;;-2.80;100.00;102658.63;6277188;22;20410;-95
2023/01/25 00:35:12;;;;;;;174.52;52.75;;;;;;;-3.01;100.00;102625.91;6276937;22;20430;-96
2023/01/25 00:37:42;;;;;;;122.15;50.15;;;;;;;-2.78;100.00;102648.56;6276684;22;20010;-95
2023/01/25 00:40:10;;;;;;;142.93;54.05;;;;;;;-2.91;100.00;102621.19;6277394;22;20004;-96
2023/01/25 00:42:36;;;;;;;126.60;49.13;;;;;;;-2.92;100.00;102622.84;6278610;22;20019;-96
2023/01/25 00:45:02;;;;;;;151.35;54.08;;;;;;;-2.87;100.00;102610.38;6278050;22;20008;-95
2023/01/25 00:47:28;;;;;;;197.30;58.85;;;;;;;-2.85;100.00;102631.50;6278563;22;20077;-96
2023/01/25 00:49:53;;;;;;;134.75;51.97;;;;;;;-2.94;100.00;102613.50;6278617;22;20004;-94
2023/01/25 00:52:20;;;;;;;258.85;60.05;;;;;;;-2.97;100.00;102615.94;6278507;22;20008;-94
2023/01/25 00:54:46;;;;;;;235.20;56.10;;;;;;;-2.78;100.00;102640.13;6278590;22;20061;-95
2023/01/25 00:57:12;;;;;;;268.35;56.95;;;;;;;-2.94;100.00;102604.25;6278602;22;20459;-96
2023/01/25 00:59:37;;;;;;;144.60;50.70;;;;;;;-2.98;100.00;102594.00;6280438;22;19999;-95
2023/01/25 01:02:03;;;;;;;133.77;47.60;;;;;;;-2.65;100.00;102654.91;6277688;22;20014;-95
2023/01/25 01:04:30;;;;;;;280.15;56.88;;;;;;;-2.92;100.00;102609.38;6278151;22;20008;-95
2023/01/25 01:06:55;;;;;;;144.43;49.53;;;;;;;-2.86;100.00;102594.38;6278462;22;20012;-95
2023/01/25 01:09:22;;;;;;;142.95;50.28;;;;;;;-2.86;100.00;102612.06;6278187;22;20007;-96
2023/01/25 01:11:48;;;;;;;194.13;54.47;;;;;;;-2.78;100.00;102625.81;6277744;22;20426;-95
2023/01/25 01:14:14;;;;;;;344.20;62.10;;;;;;;-2.96;100.00;102605.00;6277951;22;20018;-96
2023/01/25 01:16:40;;;;;;;145.98;48.58;;;;;;;-2.78;100.00;102635.06;6277491;22;20008;-94
2023/01/25 01:19:06;;;;;;;332.17;66.22;;;;;;;-2.96;100.00;102615.13;6277928;22;20134;-94
2023/01/25 01:21:32;;;;;;;196.98;55.47;;;;;;;-2.72;100.00;102625.19;6277802;22;20020;-95
2023/01/25 01:23:57;;;;;;;235.63;53.90;;;;;;;-2.66;100.00;102632.94;6277588;22;20004;-94
2023/01/25 01:26:23;;;;;;;175.73;51.00;;;;;;;-2.77;100.00;102612.38;6277472;22;20027;-93
2023/01/25 01:28:49;;;;;;;184.13;47.75;;;;;;;-2.86;100.00;102607.03;6277848;22;20011;-93
2023/01/25 01:31:20;;;;;;;208.98;52.10;;;;;;;-2.79;100.00;102603.88;6277347;22;20049;-95
2023/01/25 01:33:51;;;;;;;164.50;50.00;;;;;;;-2.76;100.00;102619.16;6277557;22;20003;-95
2023/01/25 01:36:19;;;;;;;318.73;58.13;;;;;;;-2.74;100.00;102607.41;6277446;22;20484;-95
2023/01/25 01:38:45;;;;;;;221.27;53.95;;;;;;;-2.55;100.00;102658.59;6277559;22;19999;-95
2023/01/25 01:41:12;;;;;;;374.10;59.20;;;;;;;-2.63;100.00;102641.50;6277675;22;20086;-94
2023/01/25 01:43:38;;;;;;;188.80;53.42;;;;;;;-2.74;100.00;102624.25;6277141;22;20501;-95
2023/01/25 01:46:12;;;;;;;177.43;52.45;;;;;;;-2.51;100.00;102661.25;6277891;22;20007;-95
2023/01/25 01:48:59;;;;;;;126.00;47.85;;;;;;;-2.45;100.00;102666.50;6277565;22;20023;-95
2023/01/25 01:51:27;;;;;;;158.68;50.40;;;;;;;-2.65;100.00;102668.38;6277875;22;20418;-95
2023/01/25 01:54:09;;;;;;;199.27;56.17;;;;;;;-2.81;100.00;102620.66;6277745;22;20011;-95
2023/01/25 01:56:47;;;;;;;292.05;58.15;;;;;;;-2.95;100.00;102622.75;6278030;22;20004;-96
2023/01/25 01:59:13;;;;;;;156.98;53.78;;;;;;;-2.90;100.00;102626.28;6277045;22;20023;-95
2023/01/25 02:01:40;;;;;;;246.30;61.97;;;;;;;-2.96;100.00;102620.16;6277119;22;20441;-95
2023/01/25 02:04:08;;;;;;;188.75;55.30;;;;;;;-2.71;100.00;102637.00;6277144;22;19999;-95
2023/01/25 02:06:43;;;;;;;292.67;58.83;;;;;;;-2.93;100.00;102626.16;6277816;22;20012;-94
2023/01/25 02:09:09;;;;;;;226.88;58.53;;;;;;;-2.86;100.00;102637.34;6277811;22;20365;-94
2023/01/25 02:11:36;;;;;;;193.10;56.80;;;;;;;-2.77;100.00;102637.66;6276866;22;19996;-95
2023/01/25 02:14:01;;;;;;;207.43;57.15;;;;;;;-2.76;100.00;102644.41;6276902;22;20057;-95
2023/01/25 02:16:28;;;;;;;155.27;52.15;;;;;;;-2.76;100.00;102624.19;6276974;22;20004;-96
2023/01/25 02:19:01;;;;;;;192.18;52.50;;;;;;;-2.75;100.00;102625.94;6277567;22;20007;-95
2023/01/25 02:21:32;;;;;;;179.68;53.53;;;;;;;-2.91;100.00;102611.91;6277849;22;20003;-94
2023/01/25 02:24:15;;;;;;;149.65;52.13;;;;;;;-2.79;100.00;102608.94;6277453;22;20000;-95
2023/01/25 02:26:42;;;;;;;204.75;57.33;;;;;;;-2.84;100.00;102618.03;6277023;22;20004;-96
2023/01/25 02:29:09;;;;;;;115.32;50.42;;;;;;;-2.47;100.00;102654.63;6277792;22;20031;-95
2023/01/25 02:31:35;;;;;;;119.53;50.17;;;;;;;-2.60;100.00;102611.25;6277141;22;20015;-94
2023/01/25 02:34:01;;;;;;;117.50;50.03;;;;;;;-2.53;100.00;102608.94;6277103;22;20457;-95
2023/01/25 02:36:29;;;;;;;149.88;53.03;;;;;;;-2.38;100.00;102611.94;6277202;22;20004;-95
2023/01/25 02:39:00;;;;;;;113.75;49.53;;;;;;;-2.37;100.00;102614.47;6276899;22;20004;-95
2023/01/25 02:41:32;;;;;;;120.20;50.55;;;;;;;-2.24;100.00;102645.25;6277966;22;20003;-94
2023/01/25 02:44:03;;;;;;;112.60;47.28;;;;;;;-2.31;100.00;102613.84;6277440;22;20081;-96
2023/01/25 02:46:34;;;;;;;118.10;47.87;;;;;;;-2.16;100.00;102619.34;6277050;22;20384;-94
2023/01/25 02:49:01;;;;;;;106.18;46.15;;;;;;;-2.23;100.00;102607.34;6276910;22;20237;-96
2023/01/25 02:51:29;;;;;;;100.00;44.25;;;;;;;-2.23;100.00;102604.81;6276732;22;20069;-95
2023/01/25 02:53:55;;;;;;;94.28;41.47;;;;;;;-2.24;100.00;102595.50;6276315;22;20063;-95
2023/01/25 02:56:21;;;;;;;70.45;33.90;;;;;;;-2.05;100.00;102634.88;6276125;22;20064;-95
2023/01/25 02:58:47;;;;;;;95.63;43.63;;;;;;;-2.11;100.00;102611.06;6276264;22;19996;-96
2023/01/25 03:01:13;;;;;;;90.72;39.25;;;;;;;-2.06;100.00;102625.53;6276154;22;20098;-95
2023/01/25 03:03:39;;;;;;;70.47;34.30;;;;;;;-1.94;100.00;102637.72;6275873;22;20004;-96
2023/01/25 03:06:06;;;;;;;51.47;25.73;;;;;;;-2.03;100.00;102609.59;6275655;22;20098;-94
2023/01/25 03:08:32;;;;;;;61.85;27.65;;;;;;;-2.02;100.00;102593.63;6275665;22;20047;-95
2023/01/25 03:10:59;;;;;;;49.50;25.95;;;;;;;-1.93;100.00;102606.50;6276266;22;20484;-95
2023/01/25 03:13:25;;;;;;;53.42;24.27;;;;;;;-1.70;100.00;102629.13;6275660;22;20012;-96
2023/01/25 03:15:57;;;;;;;63.40;24.27;;;;;;;-1.73;100.00;102620.63;6276450;22;20319;-95
2023/01/25 03:18:22;;;;;;;56.85;24.98;;;;;;;-1.78;100.00;102599.38;6276387;22;20000;-96
2023/01/25 03:20:48;;;;;;;81.55;32.97;;;;;;;-1.78;100.00;102594.31;6275623;22;20015;-95
2023/01/25 03:23:14;;;;;;;84.18;31.17;;;;;;;-1.79;100.00;102599.31;6276266;22;19999;-96
2023/01/25 03:25:39;;;;;;;67.53;30.00;;;;;;;-1.61;100.00;102620.09;6276232;22;20035;-95
2023/01/25 03:28:05;;;;;;;69.55;29.65;;;;;;;-1.64;100.00;102599.75;6276353;22;20022;-95
2023/01/25 03:30:30;;;;;;;95.63;33.63;;;;;;;-1.84;100.00;102573.88;6275801;22;20444;-95
2023/01/25 03:32:56;;;;;;;98.03;36.80;;;;;;;-1.86;100.00;102585.63;6277011;22;20452;-95
2023/01/25 03:35:22;;;;;;;112.88;43.67;;;;;;;-1.83;100.00;102600.94;6276172;22;20077;-95
2023/01/25 03:37:47;;;;;;;143.70;52.72;;;;;;;-1.92;100.00;102588.00;6275854;22;20007;-95
2023/01/25 03:40:13;;;;;;;131.63;51.45;;;;;;;-2.04;100.00;102577.53;6275822;22;20008;-95
2023/01/25 03:42:39;;;;;;;187.18;59.03;;;;;;;-2.17;100.00;102592.34;6276233;22;20097;-95
2023/01/25 03:45:05;;;;;;;158.25;55.25;;;;;;;-2.30;100.00;102582.66;6275968;22;20326;-95
2023/01/25 03:47:31;;;;;;;120.03;49.47;;;;;;;-2.04;100.00;102597.78;6275992;22;20095;-94
2023/01/25 03:49:56;;;;;;;153.70;58.03;;;;;;;-2.08;100.00;102590.91;6277315;22;20004;-94
2023/01/25 03:52:23;;;;;;;138.05;51.25;;;;;;;-2.06;100.00;102599.41;6276605;22;20027;-95
2023/01/25 03:54:49;;;;;;;155.73;55.17;;;;;;;-2.12;100.00;102596.66;6276246;22;20015;-95
2023/01/25 03:57:14;;;;;;;119.00;50.00;;;;;;;-2.05;100.00;102611.22;6276468;22;20000;-94
2023/01/25 03:59:40;;;;;;;206.52;55.75;;;;;;;-2.30;100.00;102580.13;6276383;22;20007;-94
2023/01/25 04:02:05;;;;;;;145.82;47.70;;;;;;;-2.18;100.00;102580.50;6276811;22;19996;-95
2023/01/25 04:04:31;;;;;;;135.48;50.47;;;;;;;-2.04;100.00;102613.81;6277214;22;20003;-94
2023/01/25 04:06:57;;;;;;;117.65;45.33;;;;;;;-2.10;100.00;102593.38;6277438;22;20023;-95
2023/01/25 04:09:22;;;;;;;89.90;39.63;;;;;;;-2.05;100.00;102585.91;6276040;22;20018;-94
2023/01/25 04:11:49;;;;;;;105.60;41.08;;;;;;;-1.83;100.00;102607.63;6277097;22;20351;-95
2023/01/25 04:14:15;;;;;;;80.60;33.95;;;;;;;-2.03;100.00;102581.75;6276682;22;20034;-95
2023/01/25 04:16:41;;;;;;;91.28;34.33;;;;;;;-2.01;100.00;102590.25;6277640;22;20012;-94
2023/01/25 04:19:07;;;;;;;105.63;34.42;;;;;;;-2.01;100.00;102593.66;6277970;22;20004;-94
2023/01/25 04:21:33;;;;;;;127.32;33.38;;;;;;;-1.94;100.00;102604.81;6278733;22;20007;-96
2023/01/25 04:23:59;;;;;;;140.55;33.95;;;;;;;-1.97;100.00;102598.00;6278894;22;20330;-95
2023/01/25 04:26:24;;;;;;;88.80;29.65;;;;;;;-1.83;100.00;102618.66;6278062;22;20008;-95
2023/01/25 04:28:50;;;;;;;166.35;30.17;;;;;;;-1.76;100.00;102607.84;6277804;22;20007;-94
2023/01/25 04:31:16;;;;;;;88.07;27.00;;;;;;;-1.91;100.00;102581.25;6278366;22;20030;-94
2023/01/25 04:33:41;;;;;;;76.55;23.17;;;;;;;-1.81;100.00;102591.69;6277837;22;20065;-95
2023/01/25 04:36:07;;;;;;;88.55;25.30;;;;;;;-1.67;100.00;102619.06;6278273;22;20003;-95
2023/01/25 04:38:33;;;;;;;67.53;23.77;;;;;;;-1.82;100.00;102592.50;6278192;22;20054;-94
2023/01/25 04:40:59;;;;;;;70.40;23.95;;;;;;;-1.77;100.00;102582.50;6278032;22;20077;-95
2023/01/25 04:43:25;;;;;;;107.20;30.63;;;;;;;-1.82;100.00;102576.47;6277469;22;20008;-95
2023/01/25 04:45:51;;;;;;;190.52;45.55;;;;;;;-1.87;100.00;102578.88;6277743;22;20007;-96
2023/01/25 04:48:17;;;;;;;129.10;39.35;;;;;;;-1.89;100.00;102592.28;6277747;22;20019;-95
2023/01/25 04:50:44;;;;;;;178.55;42.53;;;;;;;-1.95;100.00;102582.88;6277395;22;20460;-95
2023/01/25 04:53:11;;;;;;;139.60;40.20;;;;;;;-1.87;100.00;102586.47;6277655;22;20008;-96
2023/01/25 04:55:37;;;;;;;108.80;35.03;;;;;;;-1.87;100.00;102591.53;6277589;22;20007;-95
2023/01/25 04:58:03;;;;;;;128.48;34.42;;;;;;;-1.77;100.00;102598.56;6277663;22;20008;-95
2023/01/25 05:00:31;;;;;;;165.68;36.70;;;;;;;-1.88;100.00;102576.28;6277826;22;20008;-95
2023/01/25 05:02:56;;;;;;;134.25;39.55;;;;;;;-1.82;100.00;102579.84;6277793;22;20038;-96
2023/01/25 05:05:22;;;;;;;139.60;46.15;;;;;;;-1.85;100.00;102573.81;6277490;22;20007;-95
2023/01/25 05:07:48;;;;;;;184.63;50.80;;;;;;;-1.72;100.00;102581.81;6276868;22;20424;-95
2023/01/25 05:10:14;;;;;;;145.60;45.85;;;;;;;-1.91;100.00;102553.41;6277280;22;20010;-95
2023/01/25 05:12:39;;;;;;;166.15;52.60;;;;;;;-1.82;100.00;102562.13;6277612;22;20418;-95
2023/01/25 05:15:06;;;;;;;309.52;59.50;;;;;;;-1.81;100.00;102565.50;6277559;22;20004;-94
2023/01/25 05:17:31;;;;;;;275.10;59.47;;;;;;;-1.88;100.00;102561.94;6276609;22;20004;-95
2023/01/25 05:19:57;;;;;;;208.48;55.70;;;;;;;-1.89;100.00;102562.78;6277054;22;20064;-96
2023/01/25 05:22:23;;;;;;;175.65;54.58;;;;;;;-1.69;100.00;102582.72;6277152;22;20003;-95
2023/01/25 05:24:48;;;;;;;198.27;55.47;;;;;;;-1.73;100.00;102570.00;6277488;22;20014;-96
2023/01/25 05:27:17;;;;;;;267.27;57.22;;;;;;;-1.80;100.00;102563.03;6276953;22;20007;-95
2023/01/25 05:29:44;;;;;;;131.07;47.75;;;;;;;-1.83;100.00;102547.78;6277136;22;20012;-96
2023/01/25 05:32:19;;;;;;;134.27;49.45;;;;;;;-1.84;100.00;102551.09;6277219;22;20007;-96
2023/01/25 05:34:45;;;;;;;265.38;52.47;;;;;;;-1.82;100.00;102562.13;6276696;22;20338;-94
2023/01/25 05:37:13;;;;;;;179.32;50.95;;;;;;;-1.83;100.00;102551.94;6276728;22;20011;-95
2023/01/25 05:39:38;;;;;;;184.23;50.22;;;;;;;-1.76;100.00;102564.81;6276704;22;20004;-95
2023/01/25 05:42:11;;;;;;;141.57;45.78;;;;;;;-1.72;100.00;102548.91;6276893;22;20061;-94
2023/01/25 05:44:37;;;;;;;128.13;41.65;;;;;;;-1.72;100.00;102543.00;6277796;22;20015;-96
2023/01/25 05:47:03;;;;;;;137.43;41.47;;;;;;;-1.70;100.00;102541.38;6278138;22;20012;-96
2023/01/25 05:49:29;;;;;;;187.50;48.20;;;;;;;-1.61;100.00;102546.69;6277694;22;20015;-95
2023/01/25 05:51:54;;;;;;;125.18;39.13;;;;;;;-1.63;100.00;102537.34;6277129;22;20010;-95
2023/01/25 05:54:20;;;;;;;145.27;42.20;;;;;;;-1.60;100.00;102539.94;6277243;22;20011;-95
2023/01/25 05:56:48;;;;;;;189.93;46.97;;;;;;;-1.60;100.00;102524.75;6277244;22;20004;-96
2023/01/25 05:59:14;;;;;;;142.38;42.92;;;;;;;-1.55;100.00;102523.19;6277194;22;20006;-95
2023/01/25 06:01:40;;;;;;;125.63;40.53;;;;;;;-1.26;100.00;102571.22;6277359;22;20231;-94
2023/01/25 06:04:08;;;;;;;133.48;42.20;;;;;;;-1.50;100.00;102519.09;6277258;22;20054;-96
2023/01/25 06:06:34;;;;;;;136.07;40.75;;;;;;;-1.33;100.00;102537.25;6276977;22;20011;-96
2023/01/25 06:09:00;;;;;;;228.75;47.03;;;;;;;-1.52;100.00;102513.13;6277115;22;20363;-95
2023/01/25 06:11:26;;;;;;;173.30;40.88;;;;;;;-1.52;100.00;102510.59;6278724;22;20000;-94
2023/01/25 06:13:51;;;;;;;122.20;38.53;;;;;;;-1.45;100.00;102506.56;6277470;22;20031;-95
2023/01/25 06:16:19;;;;;;;112.78;36.42;;;;;;;-1.41;100.00;102521.88;6276281;22;20082;-95
2023/01/25 06:18:45;;;;;;;130.35;36.90;;;;;;;-1.47;100.00;102513.25;6276572;22;20503;-95
2023/01/25 06:21:11;;;;;;;128.10;38.45;;;;;;;-1.46;100.00;102508.25;6276734;22;20022;-95
2023/01/25 06:23:36;;;;;;;120.82;36.70;;;;;;;-1.48;100.00;102504.81;6277408;22;20426;-93
2023/01/25 06:26:11;;;;;;;103.72;35.38;;;;;;;-1.37;100.00;102512.66;6276472;22;20415;-96
2023/01/25 06:28:38;;;;;;;99.78;31.55;;;;;;;-1.38;100.00;102521.94;6276453;22;19999;-96
2023/01/25 06:31:10;;;;;;;105.25;32.13;;;;;;;-1.37;100.00;102508.44;6276357;22;20038;-94
2023/01/25 06:33:36;;;;;;;;;;;;;;;-1.10;100.00;102547.94;6276283;22;20457;-95
2023/01/25 06:36:06;;;;;;;123.40;34.30;;;;;;;-1.37;100.00;102508.44;6276901;22;19907;-95
2023/01/25 06:38:32;;;;;;;185.55;37.50;;;;;;;-1.39;100.00;102502.50;6275631;22;20000;-95
2023/01/25 06:41:02;;;;;;;96.85;32.20;;;;;;;-1.15;100.00;102534.31;6275524;22;20060;-95
2023/01/25 06:43:29;;;;;;;159.68;36.30;;;;;;;-1.35;100.00;102504.28;6277463;22;20015;-96
2023/01/25 06:46:05;;;;;;;144.20;36.90;;;;;;;-1.30;100.00;102496.78;6277742;22;20027;-96
2023/01/25 06:48:31;;;;;;;219.00;42.80;;;;;;;-1.30;100.00;102496.78;6277476;22;20208;-95
2023/01/25 06:51:05;;;;;;;221.85;42.20;;;;;;;-1.40;100.00;102485.56;6277430;22;20087;-94
2023/01/25 06:53:37;;;;;;;194.90;42.17;;;;;;;-1.38;100.00;102480.56;6277031;22;20012;-95
2023/01/25 06:56:08;;;;;;;148.38;36.72;;;;;;;-1.28;100.00;102471.50;6276679;22;20004;-95
2023/01/25 06:58:34;;;;;;;114.25;35.58;;;;;;;-1.14;100.00;102496.34;6276780;22;20094;-95
2023/01/25 07:01:03;;;;;;;152.15;37.70;;;;;;;-1.18;100.00;102483.56;6276794;22;20004;-93
2023/01/25 07:03:29;;;;;;;179.80;37.70;;;;;;;-1.21;100.00;102474.22;6276810;22;20015;-95
2023/01/25 07:06:06;;;;;;;221.70;37.85;;;;;;;-1.03;100.00;102499.13;6276651;22;20004;-95
2023/01/25 07:08:34;;;;;;;121.70;32.47;;;;;;;-1.13;100.00;102482.00;6278278;22;20007;-94
2023/01/25 07:11:02;;;;;;;177.52;35.13;;;;;;;-1.09;100.00;102483.78;6276573;22;20012;-95
2023/01/25 07:13:30;;;;;;;121.28;30.42;;;;;;;-0.92;100.00;102518.00;6275789;22;20101;-96
2023/01/25 07:15:59;;;;;;;153.13;32.33;;;;;;;-1.10;100.00;102475.34;6276501;22;20050;-95
2023/01/25 07:18:29;;;;;;;147.18;30.13;;;;;;;-1.08;100.00;102488.03;6276633;22;20010;-95
2023/01/25 07:21:11;;;;;;;145.10;26.95;;;;;;;-0.83;100.00;102527.47;6274940;22;20000;-96
2023/01/25 07:23:52;;;;;;;96.45;24.52;;;;;;;-0.78;100.00;102525.06;6277134;22;20034;-96
2023/01/25 07:26:27;;;;;;;120.40;26.98;;;;;;;-1.06;100.00;102486.41;6276969;22;20003;-96
2023/01/25 07:29:04;;;;;;;73.50;20.90;;;;;;;-0.98;100.00;102489.94;6277960;22;20069;-95
2023/01/25 07:31:41;;;;;;;101.55;23.52;;;;;;;-0.78;100.00;102519.97;6276933;22;20007;-96
2023/01/25 07:34:11;;;;;;;172.07;27.30;;;;;;;-0.72;100.00;102530.28;6277446;22;20015;-96
2023/01/25 07:36:42;;;;;;;120.25;28.65;;;;;;;-0.97;100.00;102483.22;6276383;22;20011;-96
2023/01/25 07:39:24;;;;;;;;;;;;;;;;;;;;;
2023/01/25 07:41:53;;;;;;;163.57;31.58;;;;;;;-0.97;100.00;102473.09;6279299;22;20070;-96
2023/01/25 07:44:24;;;;;;;133.05;28.70;;;;;;;-0.89;100.00;102481.72;6276866;22;20007;-95
2023/01/25 07:46:58;;;;;;;;;;;;;;;-0.58;100.00;102518.78;6278453;22;20357;-96
2023/01/25 07:49:24;;;;;;;152.65;29.98;;;;;;;-0.84;100.00;102485.22;6278500;22;19926;-96
2023/01/25 07:51:55;;;;;;;120.32;27.88;;;;;;;-0.82;100.00;102480.19;6278924;22;20338;-96
2023/01/25 07:54:23;;;;;;;133.05;29.17;;;;;;;-0.79;100.00;102481.09;6278643;22;20016;-95
2023/01/25 07:56:57;;;;;;;158.77;30.58;;;;;;;-0.85;100.00;102468.31;6277874;22;20026;-95
2023/01/25 07:59:31;;;;;;;107.57;24.35;;;;;;;-0.75;100.00;102476.97;6279451;22;20383;-94
2023/01/25 08:02:02;;;;;;;119.22;24.67;;;;;;;-0.48;100.00;102505.47;6280415;22;20075;-95
2023/01/25 08:04:30;;;;;;;112.90;24.20;;;;;;;-0.73;100.00;102462.63;6282918;22;20043;-95
2023/01/25 08:06:56;;;;;;;185.52;26.85;;;;;;;-0.47;100.00;102509.69;6278444;22;20041;-96
2023/01/25 08:09:29;;;;;;;158.13;24.95;;;;;;;-0.69;100.00;102459.34;6281638;22;20429;-96
2023/01/25 08:11:57;;;;;;;93.43;21.83;;;;;;;-0.61;100.00;102460.38;6281187;22;20007;-96
2023/01/25 08:14:28;;;;;;;172.70;27.25;;;;;;;-0.56;100.00;102446.13;6279272;22;20410;-95
2023/01/25 08:16:54;;;;;;;169.05;28.33;;;;;;;-0.58;100.00;102436.75;6278610;22;20008;-95
2023/01/25 08:19:24;;;;;;;178.68;27.40;;;;;;;-0.39;100.00;102465.88;6283115;22;20004;-95
2023/01/25 08:21:54;;;;;;;152.25;26.73;;;;;;;-0.54;100.00;102441.06;6280530;22;20008;-96
2023/01/25 08:24:22;;;;;;;154.10;29.48;;;;;;;-0.54;100.00;102431.75;6279156;22;20022;-95
2023/01/25 08:26:53;;;;;;;129.93;25.77;;;;;;;-0.48;100.00;102433.59;6281000;22;20004;-95
2023/01/25 08:29:19;;;;;;;143.80;25.80;;;;;;;-0.28;100.00;102459.34;6280110;22;20057;-95
2023/01/25 08:31:45;;;;;;;130.90;23.98;;;;;;;-0.39;100.00;102437.97;6280178;22;20007;-96
2023/01/25 08:34:10;;;;;;;123.93;22.90;;;;;;;-0.37;100.00;102431.25;6279916;22;20023;-96
2023/01/25 08:36:38;;;;;;;112.40;21.52;;;;;;;-0.16;100.00;102456.19;6277947;22;20031;-96
2023/01/25 08:39:06;;;;;;;114.90;22.42;;;;;;;-0.27;100.00;102428.06;6278020;22;20007;-95
2023/01/25 08:41:36;;;;;;;124.68;23.13;;;;;;;-0.11;100.00;102445.28;6278243;22;20031;-95
2023/01/25 08:44:04;;;;;;;104.80;19.98;;;;;;;-0.07;100.00;102423.38;6279356;22;20007;-96
2023/01/25 08:46:32;;;;;;;108.63;20.63;;;;;;;0.02;100.00;102423.53;6278365;22;20000;-96
2023/01/25 08:48:59;;;;;;;93.80;20.95;;;;;;;0.06;100.00;102421.91;6247412;22;20016;-96
2023/01/25 08:51:26;;;;;;;112.18;24.88;;;;;;;0.17;100.00;102425.47;6247801;22;20008;-96
2023/01/25 08:53:52;;;;;;;106.90;20.92;;;;;;;0.34;100.00;102436.81;6247339;22;20058;-96
2023/01/25 08:56:19;;;;;;;96.55;19.63;;;;;;;0.14;100.00;102400.88;6249624;22;20042;-95
2023/01/25 08:58:46;;;;;;;109.32;20.38;;;;;;;0.43;100.00;102426.78;6251211;22;20007;-95
2023/01/25 09:01:14;;;;;;;76.68;17.65;;;;;;;0.52;100.00;102422.69;6247029;22;20050;-96
2023/01/25 09:03:42;;;;;;;62.33;14.05;;;;;;;0.47;100.00;102388.75;6247256;22;20012;-96
2023/01/25 09:06:09;;;;;;;59.08;16.48;;;;;;;0.52;100.00;102376.97;6247287;22;20308;-96
2023/01/25 09:08:36;;;;;;;58.88;18.75;;;;;;;0.64;100.00;102384.78;6247258;22;20000;-96
2023/01/25 09:11:08;;;;;;;68.60;16.63;;;;;;;0.69;100.00;102408.56;6247503;22;20087;-96
2023/01/25 09:13:34;;;;;;;59.20;16.20;;;;;;;0.65;100.00;102378.84;6247186;22;20004;-96
2023/01/25 09:16:01;;;;;;;69.50;17.13;;;;;;;0.61;100.00;102365.25;6246847;22;20000;-95
2023/01/25 09:18:28;;;;;;;54.25;15.23;;;;;;;0.74;100.00;102368.81;6247057;22;20085;-95
2023/01/25 09:20:54;;;;;;;56.20;17.75;;;;;;;0.72;100.00;102388.28;6246823;22;20087;-96
2023/01/25 09:23:22;;;;;;;43.17;14.50;;;;;;;0.71;100.00;102376.41;6246584;22;20372;-96
2023/01/25 09:25:57;;;;;;;42.88;14.85;;;;;;;0.89;100.00;102385.97;6247045;22;20011;-95
2023/01/25 09:28:23;;;;;;;60.08;16.52;;;;;;;1.05;100.00;102380.28;6248756;22;20074;-95
2023/01/25 09:31:01;;;;;;;50.45;15.50;;;;;;;1.07;100.00;102347.22;6250468;22;20004;-95
2023/01/25 09:33:29;;;;;;;60.47;15.57;;;;;;;1.09;100.00;102342.16;6246590;22;20031;-95
2023/01/25 09:35:54;;;;;;;54.33;17.63;;;;;;;1.20;100.00;102343.16;6246217;22;20004;-95
2023/01/25 09:38:21;;;;;;;59.38;20.33;;;;;;;1.30;100.00;102328.84;6246206;22;20441;-96
2023/01/25 09:41:12;;;;;;;53.25;17.70;;;;;;;1.65;100.00;102363.16;6246468;22;20004;-95
2023/01/25 09:43:48;;;;;;;51.40;17.83;;;;;;;1.71;100.00;102357.28;6246213;22;20450;-95
2023/01/25 09:46:51;;;;;;;91.82;19.75;;;;;;;1.42;100.00;102329.84;6245788;22;20000;-96
2023/01/25 09:49:28;;;;;;;66.95;18.63;;;;;;;1.88;100.00;102358.31;6227175;22;20011;-95
2023/01/25 09:52:09;;;;;;;49.08;18.13;;;;;;;1.90;100.00;102353.22;6246042;22;20008;-96
2023/01/25 09:54:44;;;;;;;53.70;18.75;;;;;;;1.88;100.00;102319.25;6245496;22;20008;-95
2023/01/25 09:57:21;;;;;;;56.65;17.48;;;;;;;1.90;100.00;102298.06;6245632;22;20000;-95
2023/01/25 09:59:50;;;;;;;49.50;17.73;;;;;;;2.01;100.00;102305.78;6245781;22;20284;-95
2023/01/25 10:02:37;;;;;;;43.78;17.00;;;;;;;2.38;100.00;102340.88;6245687;22;20003;-94
2023/01/25 10:05:25;;;;;;;42.83;16.42;;;;;;;2.09;100.00;102285.47;6245573;22;20008;-95
2023/01/25 10:08:06;;;;;;;38.67;15.32;;;;;;;2.25;100.00;102294.09;6245333;22;20104;-95
2023/01/25 10:10:42;;;;;;;38.58;15.25;;;;;;;2.35;100.00;102306.03;6245838;22;20023;-95
2023/01/25 10:13:14;;;;;;;40.92;18.05;;;;;;;2.61;100.00;102339.34;6244936;22;20004;-96
2023/01/25 10:15:46;;;;;;;40.25;18.80;;;;;;;2.51;100.00;102323.13;6245636;22;20039;-95
2023/01/25 10:18:30;;;;;;;40.30;16.02;;;;;;;2.70;100.00;102328.31;6247557;22;20023;-94
2023/01/25 10:21:03;;;;;;;47.03;16.58;;;;;;;2.38;100.00;102290.75;6248645;22;20016;-95
2023/01/25 10:23:32;;;;;;;41.10;16.20;;;;;;;2.65;100.00;102335.94;6247817;22;20004;-95
2023/01/25 10:25:58;;;;;;;57.95;21.40;;;;;;;2.57;100.00;102323.16;6246425;22;20004;-96
2023/01/25 10:28:38;;;;;;;66.57;22.55;;;;;;;2.75;100.00;102308.81;6246857;22;20142;-94
2023/01/25 10:31:05;;;;;;;68.82;23.80;;;;;;;2.68;100.00;102282.44;6245820;22;20004;-96
2023/01/25 10:33:34;;;;;;;57.20;21.17;;;;;;;2.87;100.00;102282.50;6245822;22;20008;-94
2023/01/25 10:36:01;;;;;;;56.33;20.85;;;;;;;3.11;100.00;102279.22;6245826;22;20035;-94
2023/01/25 10:38:29;;;;;;;60.65;21.67;;;;;;;3.18;100.00;102278.38;6244917;22;20000;-96
2023/01/25 10:41:03;;;;;;;59.40;21.35;;;;;;;3.09;100.00;102242.63;6245119;22;20042;-94
2023/01/25 10:43:29;;;;;;;51.20;19.90;;;;;;;2.96;100.00;102239.19;6244857;22;20078;-95
2023/01/25 10:45:55;;;;;;;53.25;21.45;;;;;;;2.97;100.00;102239.19;6244897;22;20035;-95
2023/01/25 10:48:26;;;;;;;55.40;24.95;;;;;;;3.33;100.00;102273.31;6245293;22;20007;-96
2023/01/25 10:50:53;;;;;;;58.33;25.30;;;;;;;3.20;100.00;102253.72;6244907;22;20040;-95
2023/01/25 10:53:29;;;;;;;51.58;23.02;;;;;;;2.96;100.00;102240.03;6245029;22;20236;-95
2023/01/25 10:56:08;;;;;;;52.25;24.83;;;;;;;3.10;100.00;102249.44;6244881;22;20004;-96
2023/01/25 10:58:37;;;;;;;48.15;21.73;;;;;;;3.18;100.00;102263.06;6245157;22;20035;-95
2023/01/25 11:01:05;;;;;;;54.08;19.65;;;;;;;3.27;100.00;102264.78;6244838;22;20058;-94
2023/01/25 11:03:37;;;;;;;45.83;21.95;;;;;;;3.19;100.00;102273.28;6244816;22;20004;-94
2023/01/25 11:06:04;;;;;;;50.97;23.40;;;;;;;3.28;100.00;102254.59;6245493;22;20379;-94